sensor_id;sensor_type;location;lat;lon;timestamp;temperature;humidity
1025;DHT22;501;48.214;11.350;2024-02-21T00:01:18;5.60;38.00
1025;DHT22;501;48.214;11.350;2024-02-21T00:03:45;5.60;38.70
1025;DHT22;501;48.214;11.350;2024-02-21T00:06:11;5.60;38.60
1025;DHT22;501;48.214;11.350;2024-02-21T00:08:36;5.70;38.50
1025;DHT22;501;48.214;11.350;2024-02-21T00:11:02;5.70;38.30
1025;DHT22;501;48.214;11.350;2024-02-21T00:13:27;5.70;38.80
1025;DHT22;501;48.214;11.350;2024-02-21T00:15:54;5.70;38.50
1025;DHT22;501;48.214;11.350;2024-02-21T00:18:19;5.80;38.40
1025;DHT22;501;48.214;11.350;2024-02-21T00:20:45;5.80;38.50
1025;DHT22;501;48.214;11.350;2024-02-21T00:23:11;5.80;38.50
1025;DHT22;501;48.214;11.350;2024-02-21T00:25:37;5.80;38.30
1025;DHT22;501;48.214;11.350;2024-02-21T00:28:03;5.80;38.20
1025;DHT22;501;48.214;11.350;2024-02-21T00:30:29;5.80;38.60
1025;DHT22;501;48.214;11.350;2024-02-21T00:32:54;5.80;38.60
1025;DHT22;501;48.214;11.350;2024-02-21T00:35:20;5.80;38.30
1025;DHT22;501;48.214;11.350;2024-02-21T00:37:46;5.90;38.50
1025;DHT22;501;48.214;11.350;2024-02-21T00:40:11;5.90;38.50
1025;DHT22;501;48.214;11.350;2024-02-21T00:42:37;5.90;37.80
1025;DHT22;501;48.214;11.350;2024-02-21T00:45:03;5.90;37.80
1025;DHT22;501;48.214;11.350;2024-02-21T00:47:28;5.90;38.90
1025;DHT22;501;48.214;11.350;2024-02-21T00:49:54;5.90;38.80
1025;DHT22;501;48.214;11.350;2024-02-21T00:52:20;5.90;38.20
1025;DHT22;501;48.214;11.350;2024-02-21T00:54:46;5.90;38.60
1025;DHT22;501;48.214;11.350;2024-02-21T00:57:11;5.90;38.40
1025;DHT22;501;48.214;11.350;2024-02-21T00:59:37;5.90;38.90
1025;DHT22;501;48.214;11.350;2024-02-21T01:02:03;6.00;39.70
1025;DHT22;501;48.214;11.350;2024-02-21T01:04:28;6.00;39.70
1025;DHT22;501;48.214;11.350;2024-02-21T01:06:54;6.00;39.60
1025;DHT22;501;48.214;11.350;2024-02-21T01:09:20;6.00;39.70
1025;DHT22;501;48.214;11.350;2024-02-21T01:11:45;6.10;39.80
1025;DHT22;501;48.214;11.350;2024-02-21T01:14:11;6.10;39.80
1025;DHT22;501;48.214;11.350;2024-02-21T01:16:37;6.10;39.30
1025;DHT22;501;48.214;11.350;2024-02-21T01:19:02;6.10;39.40
1025;DHT22;501;48.214;11.350;2024-02-21T01:21:28;6.10;39.70
1025;DHT22;501;48.214;11.350;2024-02-21T01:23:53;6.10;39.30
1025;DHT22;501;48.214;11.350;2024-02-21T01:26:19;6.10;39.70
1025;DHT22;501;48.214;11.350;2024-02-21T01:28:45;6.10;39.90
1025;DHT22;501;48.214;11.350;2024-02-21T01:31:10;6.10;39.10
1025;DHT22;501;48.214;11.350;2024-02-21T01:33:37;6.10;39.30
1025;DHT22;501;48.214;11.350;2024-02-21T01:36:04;6.10;39.90
1025;DHT22;501;48.214;11.350;2024-02-21T01:38:32;6.10;39.60
1025;DHT22;501;48.214;11.350;2024-02-21T01:40:58;6.10;39.20
1025;DHT22;501;48.214;11.350;2024-02-21T01:43:24;6.10;39.50
1025;DHT22;501;48.214;11.350;2024-02-21T01:45:54;6.10;39.50
1025;DHT22;501;48.214;11.350;2024-02-21T01:48:22;6.20;39.70
1025;DHT22;501;48.214;11.350;2024-02-21T01:50:49;6.10;39.60
1025;DHT22;501;48.214;11.350;2024-02-21T01:53:20;6.10;39.10
1025;DHT22;501;48.214;11.350;2024-02-21T01:55:47;6.10;39.60
1025;DHT22;501;48.214;11.350;2024-02-21T01:58:14;6.10;39.10
1025;DHT22;501;48.214;11.350;2024-02-21T02:00:42;6.10;39.60
1025;DHT22;501;48.214;11.350;2024-02-21T02:03:10;6.10;39.80
1025;DHT22;501;48.214;11.350;2024-02-21T02:05:48;6.10;39.80
1025;DHT22;501;48.214;11.350;2024-02-21T02:08:15;6.00;40.10
1025;DHT22;501;48.214;11.350;2024-02-21T02:10:41;6.10;39.90
1025;DHT22;501;48.214;11.350;2024-02-21T02:13:07;6.00;39.70
1025;DHT22;501;48.214;11.350;2024-02-21T02:15:56;6.00;40.00
1025;DHT22;501;48.214;11.350;2024-02-21T02:18:21;5.90;39.80
1025;DHT22;501;48.214;11.350;2024-02-21T02:20:48;5.90;39.80
1025;DHT22;501;48.214;11.350;2024-02-21T02:23:26;6.00;40.20
1025;DHT22;501;48.214;11.350;2024-02-21T02:25:52;6.00;40.20
1025;DHT22;501;48.214;11.350;2024-02-21T02:28:18;6.00;40.00
1025;DHT22;501;48.214;11.350;2024-02-21T02:30:44;6.00;40.40
1025;DHT22;501;48.214;11.350;2024-02-21T02:33:10;6.00;40.30
1025;DHT22;501;48.214;11.350;2024-02-21T02:35:36;6.10;40.70
1025;DHT22;501;48.214;11.350;2024-02-21T02:38:02;6.10;40.60
1025;DHT22;501;48.214;11.350;2024-02-21T02:40:28;6.10;40.80
1025;DHT22;501;48.214;11.350;2024-02-21T02:42:54;6.10;40.60
1025;DHT22;501;48.214;11.350;2024-02-21T02:45:23;6.10;40.80
1025;DHT22;501;48.214;11.350;2024-02-21T02:47:49;6.20;41.10
1025;DHT22;501;48.214;11.350;2024-02-21T02:50:15;6.20;41.00
1025;DHT22;501;48.214;11.350;2024-02-21T02:52:41;6.20;41.20
1025;DHT22;501;48.214;11.350;2024-02-21T02:55:07;6.20;41.00
1025;DHT22;501;48.214;11.350;2024-02-21T02:57:33;6.20;41.10
1025;DHT22;501;48.214;11.350;2024-02-21T02:59:58;6.20;41.20
1025;DHT22;501;48.214;11.350;2024-02-21T03:02:24;6.20;41.20
1025;DHT22;501;48.214;11.350;2024-02-21T03:04:50;6.20;40.50
1025;DHT22;501;48.214;11.350;2024-02-21T03:07:16;6.10;40.50
1025;DHT22;501;48.214;11.350;2024-02-21T03:09:42;6.10;40.40
1025;DHT22;501;48.214;11.350;2024-02-21T03:12:08;6.10;40.40
1025;DHT22;501;48.214;11.350;2024-02-21T03:14:34;6.10;39.80
1025;DHT22;501;48.214;11.350;2024-02-21T03:17:01;6.00;39.80
1025;DHT22;501;48.214;11.350;2024-02-21T03:19:26;6.00;39.10
1025;DHT22;501;48.214;11.350;2024-02-21T03:21:52;6.00;38.90
1025;DHT22;501;48.214;11.350;2024-02-21T03:24:21;6.00;39.00
1025;DHT22;501;48.214;11.350;2024-02-21T03:26:47;6.00;38.80
1025;DHT22;501;48.214;11.350;2024-02-21T03:29:17;6.00;39.10
1025;DHT22;501;48.214;11.350;2024-02-21T03:31:43;6.00;38.40
1025;DHT22;501;48.214;11.350;2024-02-21T03:34:12;6.00;39.00
1025;DHT22;501;48.214;11.350;2024-02-21T03:36:37;6.00;39.10
1025;DHT22;501;48.214;11.350;2024-02-21T03:39:04;6.00;38.70
1025;DHT22;501;48.214;11.350;2024-02-21T03:41:29;6.00;38.50
1025;DHT22;501;48.214;11.350;2024-02-21T03:43:55;6.00;38.50
1025;DHT22;501;48.214;11.350;2024-02-21T03:46:21;6.00;37.80
1025;DHT22;501;48.214;11.350;2024-02-21T03:48:46;6.00;37.80
1025;DHT22;501;48.214;11.350;2024-02-21T03:51:12;6.00;37.80
1025;DHT22;501;48.214;11.350;2024-02-21T03:53:38;6.00;37.80
1025;DHT22;501;48.214;11.350;2024-02-21T03:56:04;6.00;38.20
1025;DHT22;501;48.214;11.350;2024-02-21T03:58:33;6.00;38.10
1025;DHT22;501;48.214;11.350;2024-02-21T04:01:02;6.00;38.40
1025;DHT22;501;48.214;11.350;2024-02-21T04:03:28;6.00;38.00
1025;DHT22;501;48.214;11.350;2024-02-21T04:05:53;6.00;37.80
1025;DHT22;501;48.214;11.350;2024-02-21T04:08:19;6.00;37.80
1025;DHT22;501;48.214;11.350;2024-02-21T04:10:45;6.00;37.80
1025;DHT22;501;48.214;11.350;2024-02-21T04:13:10;6.00;38.10
1025;DHT22;501;48.214;11.350;2024-02-21T04:15:36;6.00;38.20
1025;DHT22;501;48.214;11.350;2024-02-21T04:18:02;6.00;38.10
1025;DHT22;501;48.214;11.350;2024-02-21T04:20:31;6.00;38.00
1025;DHT22;501;48.214;11.350;2024-02-21T04:22:57;6.00;37.80
1025;DHT22;501;48.214;11.350;2024-02-21T04:25:23;5.90;37.80
1025;DHT22;501;48.214;11.350;2024-02-21T04:27:49;5.90;38.00
1025;DHT22;501;48.214;11.350;2024-02-21T04:30:15;5.90;38.00
1025;DHT22;501;48.214;11.350;2024-02-21T04:32:41;6.00;38.00
1025;DHT22;501;48.214;11.350;2024-02-21T04:35:07;5.90;37.70
1025;DHT22;501;48.214;11.350;2024-02-21T04:37:33;5.90;37.70
1025;DHT22;501;48.214;11.350;2024-02-21T04:39:59;5.90;38.00
1025;DHT22;501;48.214;11.350;2024-02-21T04:42:25;5.90;38.70
1025;DHT22;501;48.214;11.350;2024-02-21T04:44:50;5.90;38.90
1025;DHT22;501;48.214;11.350;2024-02-21T04:47:16;5.90;38.90
1025;DHT22;501;48.214;11.350;2024-02-21T04:49:42;5.90;39.20
1025;DHT22;501;48.214;11.350;2024-02-21T04:52:07;5.90;39.70
1025;DHT22;501;48.214;11.350;2024-02-21T04:54:33;5.90;39.90
1025;DHT22;501;48.214;11.350;2024-02-21T04:57:00;5.90;39.90
1025;DHT22;501;48.214;11.350;2024-02-21T04:59:26;6.00;39.80
1025;DHT22;501;48.214;11.350;2024-02-21T05:01:52;6.00;40.50
1025;DHT22;501;48.214;11.350;2024-02-21T05:04:18;5.90;39.50
1025;DHT22;501;48.214;11.350;2024-02-21T05:06:43;5.90;39.80
1025;DHT22;501;48.214;11.350;2024-02-21T05:09:09;5.90;39.80
1025;DHT22;501;48.214;11.350;2024-02-21T05:11:36;5.90;40.00
1025;DHT22;501;48.214;11.350;2024-02-21T05:14:01;5.90;39.60
1025;DHT22;501;48.214;11.350;2024-02-21T05:16:28;5.90;39.70
1025;DHT22;501;48.214;11.350;2024-02-21T05:18:53;5.80;40.20
1025;DHT22;501;48.214;11.350;2024-02-21T05:21:19;5.80;39.80
1025;DHT22;501;48.214;11.350;2024-02-21T05:23:45;5.80;40.00
1025;DHT22;501;48.214;11.350;2024-02-21T05:26:10;5.80;40.20
1025;DHT22;501;48.214;11.350;2024-02-21T05:28:36;5.80;40.00
1025;DHT22;501;48.214;11.350;2024-02-21T05:31:02;5.80;39.70
1025;DHT22;501;48.214;11.350;2024-02-21T05:33:27;5.80;39.70
1025;DHT22;501;48.214;11.350;2024-02-21T05:35:53;5.80;39.90
1025;DHT22;501;48.214;11.350;2024-02-21T05:38:19;5.80;40.00
1025;DHT22;501;48.214;11.350;2024-02-21T05:40:44;5.70;39.80
1025;DHT22;501;48.214;11.350;2024-02-21T05:43:10;5.70;39.50
1025;DHT22;501;48.214;11.350;2024-02-21T05:45:36;5.70;39.70
1025;DHT22;501;48.214;11.350;2024-02-21T05:48:02;5.70;39.40
1025;DHT22;501;48.214;11.350;2024-02-21T05:50:28;5.70;39.20
1025;DHT22;501;48.214;11.350;2024-02-21T05:52:56;5.70;38.90
1025;DHT22;501;48.214;11.350;2024-02-21T05:55:22;5.70;38.90
1025;DHT22;501;48.214;11.350;2024-02-21T05:57:48;5.70;39.10
1025;DHT22;501;48.214;11.350;2024-02-21T06:00:14;5.70;38.90
1025;DHT22;501;48.214;11.350;2024-02-21T06:02:40;5.60;38.80
1025;DHT22;501;48.214;11.350;2024-02-21T06:05:07;5.60;39.00
1025;DHT22;501;48.214;11.350;2024-02-21T06:07:33;5.50;38.70
1025;DHT22;501;48.214;11.350;2024-02-21T06:10:01;5.50;38.50
1025;DHT22;501;48.214;11.350;2024-02-21T06:12:27;5.40;38.90
1025;DHT22;501;48.214;11.350;2024-02-21T06:14:52;5.40;38.30
1025;DHT22;501;48.214;11.350;2024-02-21T06:17:18;5.40;38.40
1025;DHT22;501;48.214;11.350;2024-02-21T06:19:44;5.40;38.90
1025;DHT22;501;48.214;11.350;2024-02-21T06:22:10;5.40;38.70
1025;DHT22;501;48.214;11.350;2024-02-21T06:24:36;5.40;39.10
1025;DHT22;501;48.214;11.350;2024-02-21T06:27:05;5.40;39.20
1025;DHT22;501;48.214;11.350;2024-02-21T06:29:34;5.30;38.60
1025;DHT22;501;48.214;11.350;2024-02-21T06:32:00;5.30;38.10
1025;DHT22;501;48.214;11.350;2024-02-21T06:34:26;5.30;37.40
1025;DHT22;501;48.214;11.350;2024-02-21T06:36:52;5.30;37.20
1025;DHT22;501;48.214;11.350;2024-02-21T06:39:17;5.30;38.20
1025;DHT22;501;48.214;11.350;2024-02-21T06:41:43;5.30;38.00
1025;DHT22;501;48.214;11.350;2024-02-21T06:44:09;5.30;38.20
1025;DHT22;501;48.214;11.350;2024-02-21T06:46:35;5.30;38.20
1025;DHT22;501;48.214;11.350;2024-02-21T06:49:01;5.30;37.20
1025;DHT22;501;48.214;11.350;2024-02-21T06:51:27;5.30;37.70
1025;DHT22;501;48.214;11.350;2024-02-21T06:53:53;5.40;37.90
1025;DHT22;501;48.214;11.350;2024-02-21T06:56:20;5.40;37.60
1025;DHT22;501;48.214;11.350;2024-02-21T06:58:46;5.40;37.20
1025;DHT22;501;48.214;11.350;2024-02-21T07:01:11;5.40;37.50
1025;DHT22;501;48.214;11.350;2024-02-21T07:03:37;5.40;37.80
1025;DHT22;501;48.214;11.350;2024-02-21T07:06:03;5.40;37.20
1025;DHT22;501;48.214;11.350;2024-02-21T07:08:29;5.50;37.30
1025;DHT22;501;48.214;11.350;2024-02-21T07:10:55;5.50;37.30
1025;DHT22;501;48.214;11.350;2024-02-21T07:13:20;5.50;37.30
1025;DHT22;501;48.214;11.350;2024-02-21T07:15:48;5.50;37.60
1025;DHT22;501;48.214;11.350;2024-02-21T07:18:14;5.50;37.90
1025;DHT22;501;48.214;11.350;2024-02-21T07:20:39;5.50;37.70
1025;DHT22;501;48.214;11.350;2024-02-21T07:23:08;5.60;37.40
1025;DHT22;501;48.214;11.350;2024-02-21T07:25:34;5.60;37.80
1025;DHT22;501;48.214;11.350;2024-02-21T07:27:59;5.60;38.10
1025;DHT22;501;48.214;11.350;2024-02-21T07:30:25;5.60;37.40
1025;DHT22;501;48.214;11.350;2024-02-21T07:32:51;5.60;37.60
1025;DHT22;501;48.214;11.350;2024-02-21T07:35:19;5.70;37.50
1025;DHT22;501;48.214;11.350;2024-02-21T07:37:45;5.70;37.50
1025;DHT22;501;48.214;11.350;2024-02-21T07:40:15;5.80;37.60
1025;DHT22;501;48.214;11.350;2024-02-21T07:42:41;5.80;37.60
1025;DHT22;501;48.214;11.350;2024-02-21T07:45:09;5.80;36.80
1025;DHT22;501;48.214;11.350;2024-02-21T07:47:36;5.80;36.50
1025;DHT22;501;48.214;11.350;2024-02-21T07:50:02;5.70;36.80
1025;DHT22;501;48.214;11.350;2024-02-21T07:52:28;5.70;36.40
1025;DHT22;501;48.214;11.350;2024-02-21T07:54:54;5.70;36.70
1025;DHT22;501;48.214;11.350;2024-02-21T07:57:20;5.80;37.60
1025;DHT22;501;48.214;11.350;2024-02-21T07:59:45;5.80;37.50
1025;DHT22;501;48.214;11.350;2024-02-21T08:02:16;5.90;37.70
1025;DHT22;501;48.214;11.350;2024-02-21T08:04:42;5.90;37.40
1025;DHT22;501;48.214;11.350;2024-02-21T08:07:08;6.00;37.20
1025;DHT22;501;48.214;11.350;2024-02-21T08:09:35;6.10;37.10
1025;DHT22;501;48.214;11.350;2024-02-21T08:12:00;6.10;37.20
1025;DHT22;501;48.214;11.350;2024-02-21T08:14:26;6.20;36.50
1025;DHT22;501;48.214;11.350;2024-02-21T08:16:52;6.20;36.10
1025;DHT22;501;48.214;11.350;2024-02-21T08:19:21;6.20;36.60
1025;DHT22;501;48.214;11.350;2024-02-21T08:21:47;6.30;36.60
1025;DHT22;501;48.214;11.350;2024-02-21T08:24:16;6.40;35.20
1025;DHT22;501;48.214;11.350;2024-02-21T08:26:43;6.40;35.00
1025;DHT22;501;48.214;11.350;2024-02-21T08:29:10;6.40;35.80
1025;DHT22;501;48.214;11.350;2024-02-21T08:31:36;6.40;35.20
1025;DHT22;501;48.214;11.350;2024-02-21T08:34:01;6.50;35.70
1025;DHT22;501;48.214;11.350;2024-02-21T08:36:34;6.60;36.20
1025;DHT22;501;48.214;11.350;2024-02-21T08:39:02;6.60;34.30
1025;DHT22;501;48.214;11.350;2024-02-21T08:41:34;6.70;34.50
1025;DHT22;501;48.214;11.350;2024-02-21T08:44:00;6.70;34.40
1025;DHT22;501;48.214;11.350;2024-02-21T08:46:26;6.80;34.30
1025;DHT22;501;48.214;11.350;2024-02-21T08:48:53;6.90;33.70
1025;DHT22;501;48.214;11.350;2024-02-21T08:51:19;6.90;33.90
1025;DHT22;501;48.214;11.350;2024-02-21T08:53:45;7.00;34.10
1025;DHT22;501;48.214;11.350;2024-02-21T08:56:11;7.00;33.70
1025;DHT22;501;48.214;11.350;2024-02-21T08:58:38;7.10;33.50
1025;DHT22;501;48.214;11.350;2024-02-21T09:01:04;7.20;33.30
1025;DHT22;501;48.214;11.350;2024-02-21T09:03:32;7.20;32.90
1025;DHT22;501;48.214;11.350;2024-02-21T09:05:58;7.30;31.90
1025;DHT22;501;48.214;11.350;2024-02-21T09:08:24;7.40;32.30
1025;DHT22;501;48.214;11.350;2024-02-21T09:10:50;7.50;30.30
1025;DHT22;501;48.214;11.350;2024-02-21T09:13:16;7.50;30.00
1025;DHT22;501;48.214;11.350;2024-02-21T09:15:42;7.60;30.00
1025;DHT22;501;48.214;11.350;2024-02-21T09:18:08;7.70;29.60
1025;DHT22;501;48.214;11.350;2024-02-21T09:20:34;7.80;29.50
1025;DHT22;501;48.214;11.350;2024-02-21T09:22:59;7.90;29.50
1025;DHT22;501;48.214;11.350;2024-02-21T09:25:25;8.00;28.90
1025;DHT22;501;48.214;11.350;2024-02-21T09:27:51;8.10;28.70
1025;DHT22;501;48.214;11.350;2024-02-21T09:30:19;8.20;27.90
1025;DHT22;501;48.214;11.350;2024-02-21T09:32:45;8.30;26.80
1025;DHT22;501;48.214;11.350;2024-02-21T09:35:11;8.40;27.40
1025;DHT22;501;48.214;11.350;2024-02-21T09:37:38;8.40;28.20
1025;DHT22;501;48.214;11.350;2024-02-21T09:40:05;8.60;27.00
1025;DHT22;501;48.214;11.350;2024-02-21T09:42:38;8.70;25.40
1025;DHT22;501;48.214;11.350;2024-02-21T09:50:14;8.90;25.80
1025;DHT22;501;48.214;11.350;2024-02-21T09:52:40;9.00;26.20
1025;DHT22;501;48.214;11.350;2024-02-21T09:55:08;9.10;26.10
1025;DHT22;501;48.214;11.350;2024-02-21T09:57:36;9.20;24.90
1025;DHT22;501;48.214;11.350;2024-02-21T10:00:04;9.20;25.10
1025;DHT22;501;48.214;11.350;2024-02-21T10:02:33;9.30;25.30
1025;DHT22;501;48.214;11.350;2024-02-21T10:04:58;9.40;24.50
1025;DHT22;501;48.214;11.350;2024-02-21T10:07:24;9.50;24.10
1025;DHT22;501;48.214;11.350;2024-02-21T10:10:03;9.50;24.10
1025;DHT22;501;48.214;11.350;2024-02-21T10:12:29;9.60;24.90
1025;DHT22;501;48.214;11.350;2024-02-21T10:15:03;9.60;24.20
1025;DHT22;501;48.214;11.350;2024-02-21T10:17:29;9.70;24.50
1025;DHT22;501;48.214;11.350;2024-02-21T10:19:54;9.70;24.20
1025;DHT22;501;48.214;11.350;2024-02-21T10:22:20;9.80;24.30
1025;DHT22;501;48.214;11.350;2024-02-21T10:24:46;9.80;24.90
1025;DHT22;501;48.214;11.350;2024-02-21T10:27:12;9.90;24.70
1025;DHT22;501;48.214;11.350;2024-02-21T10:29:39;10.00;23.70
1025;DHT22;501;48.214;11.350;2024-02-21T10:32:14;10.00;22.80
1025;DHT22;501;48.214;11.350;2024-02-21T10:34:42;10.10;22.90
1025;DHT22;501;48.214;11.350;2024-02-21T10:37:09;10.20;23.80
1025;DHT22;501;48.214;11.350;2024-02-21T10:39:40;10.20;23.80
1025;DHT22;501;48.214;11.350;2024-02-21T10:42:06;10.40;23.00
1025;DHT22;501;48.214;11.350;2024-02-21T10:44:37;10.40;22.10
1025;DHT22;501;48.214;11.350;2024-02-21T10:47:08;10.50;23.60
1025;DHT22;501;48.214;11.350;2024-02-21T10:49:38;10.60;23.20
1025;DHT22;501;48.214;11.350;2024-02-21T10:55:10;10.70;23.60
1025;DHT22;501;48.214;11.350;2024-02-21T10:57:41;10.90;23.60
1025;DHT22;501;48.214;11.350;2024-02-21T11:00:09;11.00;23.00
1025;DHT22;501;48.214;11.350;2024-02-21T11:02:38;11.10;23.70
1025;DHT22;501;48.214;11.350;2024-02-21T11:05:05;11.20;22.90
1025;DHT22;501;48.214;11.350;2024-02-21T11:07:32;11.20;23.00
1025;DHT22;501;48.214;11.350;2024-02-21T11:10:00;11.30;21.50
1025;DHT22;501;48.214;11.350;2024-02-21T11:12:26;11.30;20.80
1025;DHT22;501;48.214;11.350;2024-02-21T11:14:59;11.40;21.70
1025;DHT22;501;48.214;11.350;2024-02-21T11:17:29;11.40;21.50
1025;DHT22;501;48.214;11.350;2024-02-21T11:19:55;11.50;22.20
1025;DHT22;501;48.214;11.350;2024-02-21T11:22:21;11.60;21.20
1025;DHT22;501;48.214;11.350;2024-02-21T11:24:48;11.70;22.50
1025;DHT22;501;48.214;11.350;2024-02-21T11:27:19;11.70;20.60
1025;DHT22;501;48.214;11.350;2024-02-21T11:29:53;11.80;20.60
1025;DHT22;501;48.214;11.350;2024-02-21T11:32:20;11.80;20.90
1025;DHT22;501;48.214;11.350;2024-02-21T11:34:58;11.90;21.50
1025;DHT22;501;48.214;11.350;2024-02-21T11:37:29;11.90;20.90
1025;DHT22;501;48.214;11.350;2024-02-21T11:39:56;12.00;19.80
1025;DHT22;501;48.214;11.350;2024-02-21T11:42:21;12.10;20.10
1025;DHT22;501;48.214;11.350;2024-02-21T11:44:48;12.10;19.80
1025;DHT22;501;48.214;11.350;2024-02-21T11:47:14;12.20;19.80
1025;DHT22;501;48.214;11.350;2024-02-21T11:49:47;12.20;19.30
1025;DHT22;501;48.214;11.350;2024-02-21T11:52:21;12.30;18.90
1025;DHT22;501;48.214;11.350;2024-02-21T11:54:48;12.30;19.50
1025;DHT22;501;48.214;11.350;2024-02-21T11:57:14;12.30;19.20
1025;DHT22;501;48.214;11.350;2024-02-21T11:59:40;12.40;18.20
1025;DHT22;501;48.214;11.350;2024-02-21T12:02:06;12.40;17.90
1025;DHT22;501;48.214;11.350;2024-02-21T12:04:32;12.50;19.50
1025;DHT22;501;48.214;11.350;2024-02-21T12:06:58;12.50;18.00
1025;DHT22;501;48.214;11.350;2024-02-21T12:09:25;12.60;18.60
1025;DHT22;501;48.214;11.350;2024-02-21T12:11:58;12.60;16.20
1025;DHT22;501;48.214;11.350;2024-02-21T12:14:25;12.60;17.70
1025;DHT22;501;48.214;11.350;2024-02-21T12:16:52;12.70;19.00
1025;DHT22;501;48.214;11.350;2024-02-21T12:19:18;12.70;18.50
1025;DHT22;501;48.214;11.350;2024-02-21T12:21:44;12.80;18.20
1025;DHT22;501;48.214;11.350;2024-02-21T12:24:24;12.90;19.10
1025;DHT22;501;48.214;11.350;2024-02-21T12:26:51;13.00;18.30
1025;DHT22;501;48.214;11.350;2024-02-21T12:29:18;13.10;17.50
1025;DHT22;501;48.214;11.350;2024-02-21T12:31:44;13.10;16.90
1025;DHT22;501;48.214;11.350;2024-02-21T12:34:10;13.10;16.90
1025;DHT22;501;48.214;11.350;2024-02-21T12:36:43;13.20;17.10
1025;DHT22;501;48.214;11.350;2024-02-21T12:39:14;13.20;17.90
1025;DHT22;501;48.214;11.350;2024-02-21T12:41:42;13.30;18.50
1025;DHT22;501;48.214;11.350;2024-02-21T12:44:10;13.30;17.50
1025;DHT22;501;48.214;11.350;2024-02-21T12:46:37;13.40;16.90
1025;DHT22;501;48.214;11.350;2024-02-21T12:49:03;13.50;18.00
1025;DHT22;501;48.214;11.350;2024-02-21T12:51:30;13.60;17.90
1025;DHT22;501;48.214;11.350;2024-02-21T12:53:56;13.70;17.50
1025;DHT22;501;48.214;11.350;2024-02-21T12:56:22;13.70;17.40
1025;DHT22;501;48.214;11.350;2024-02-21T12:58:48;13.80;17.20
1025;DHT22;501;48.214;11.350;2024-02-21T13:01:13;13.80;16.80
1025;DHT22;501;48.214;11.350;2024-02-21T13:03:39;13.90;16.20
1025;DHT22;501;48.214;11.350;2024-02-21T13:06:05;13.90;16.30
1025;DHT22;501;48.214;11.350;2024-02-21T13:08:33;14.10;17.30
1025;DHT22;501;48.214;11.350;2024-02-21T13:11:00;14.20;19.10
1025;DHT22;501;48.214;11.350;2024-02-21T13:13:26;14.40;20.40
1025;DHT22;501;48.214;11.350;2024-02-21T13:15:52;14.60;19.40
1025;DHT22;501;48.214;11.350;2024-02-21T13:18:18;15.00;18.70
1025;DHT22;501;48.214;11.350;2024-02-21T13:20:43;15.30;17.00
1025;DHT22;501;48.214;11.350;2024-02-21T13:23:09;15.70;17.30
1025;DHT22;501;48.214;11.350;2024-02-21T13:25:35;16.10;16.90
1025;DHT22;501;48.214;11.350;2024-02-21T13:28:00;16.40;17.70
1025;DHT22;501;48.214;11.350;2024-02-21T13:30:27;16.80;16.70
1025;DHT22;501;48.214;11.350;2024-02-21T13:32:52;17.10;13.60
1025;DHT22;501;48.214;11.350;2024-02-21T13:35:20;17.40;13.70
1025;DHT22;501;48.214;11.350;2024-02-21T13:37:46;17.70;13.50
1025;DHT22;501;48.214;11.350;2024-02-21T13:40:12;18.10;13.30
1025;DHT22;501;48.214;11.350;2024-02-21T13:42:39;18.20;12.30
1025;DHT22;501;48.214;11.350;2024-02-21T13:45:05;18.30;12.80
1025;DHT22;501;48.214;11.350;2024-02-21T13:47:35;18.30;11.90
1025;DHT22;501;48.214;11.350;2024-02-21T13:50:05;18.40;13.90
1025;DHT22;501;48.214;11.350;2024-02-21T13:52:34;18.50;14.40
1025;DHT22;501;48.214;11.350;2024-02-21T13:55:00;18.60;13.10
1025;DHT22;501;48.214;11.350;2024-02-21T13:57:25;18.60;13.10
1025;DHT22;501;48.214;11.350;2024-02-21T13:59:51;18.60;13.30
1025;DHT22;501;48.214;11.350;2024-02-21T14:02:17;18.60;12.10
1025;DHT22;501;48.214;11.350;2024-02-21T14:04:43;18.70;13.80
1025;DHT22;501;48.214;11.350;2024-02-21T14:07:09;18.80;12.30
1025;DHT22;501;48.214;11.350;2024-02-21T14:09:34;18.90;12.80
1025;DHT22;501;48.214;11.350;2024-02-21T14:12:02;19.10;12.70
1025;DHT22;501;48.214;11.350;2024-02-21T14:14:28;19.30;13.80
1025;DHT22;501;48.214;11.350;2024-02-21T14:16:53;19.50;13.10
1025;DHT22;501;48.214;11.350;2024-02-21T14:19:19;19.90;12.90
1025;DHT22;501;48.214;11.350;2024-02-21T14:21:44;20.30;11.10
1025;DHT22;501;48.214;11.350;2024-02-21T14:24:11;20.30;10.90
1025;DHT22;501;48.214;11.350;2024-02-21T14:26:37;20.40;11.50
1025;DHT22;501;48.214;11.350;2024-02-21T14:29:04;20.50;11.60
1025;DHT22;501;48.214;11.350;2024-02-21T14:31:33;20.60;12.60
1025;DHT22;501;48.214;11.350;2024-02-21T14:33:59;20.60;11.40
1025;DHT22;501;48.214;11.350;2024-02-21T14:36:26;20.40;10.70
1025;DHT22;501;48.214;11.350;2024-02-21T14:38:52;20.20;11.40
1025;DHT22;501;48.214;11.350;2024-02-21T14:41:18;20.00;12.10
1025;DHT22;501;48.214;11.350;2024-02-21T14:43:44;19.70;12.60
1025;DHT22;501;48.214;11.350;2024-02-21T14:46:10;19.40;11.90
1025;DHT22;501;48.214;11.350;2024-02-21T14:48:37;19.00;11.00
1025;DHT22;501;48.214;11.350;2024-02-21T14:51:03;18.70;11.00
1025;DHT22;501;48.214;11.350;2024-02-21T14:53:29;18.30;11.80
1025;DHT22;501;48.214;11.350;2024-02-21T14:55:56;18.00;12.10
1025;DHT22;501;48.214;11.350;2024-02-21T14:58:23;17.70;12.30
1025;DHT22;501;48.214;11.350;2024-02-21T15:00:49;17.40;13.60
1025;DHT22;501;48.214;11.350;2024-02-21T15:03:18;17.20;14.20
1025;DHT22;501;48.214;11.350;2024-02-21T15:05:47;16.90;13.20
1025;DHT22;501;48.214;11.350;2024-02-21T15:08:13;16.60;14.20
1025;DHT22;501;48.214;11.350;2024-02-21T15:10:42;16.40;15.00
1025;DHT22;501;48.214;11.350;2024-02-21T15:13:08;16.20;15.50
1025;DHT22;501;48.214;11.350;2024-02-21T15:15:33;16.10;15.10
1025;DHT22;501;48.214;11.350;2024-02-21T15:17:59;15.90;15.80
1025;DHT22;501;48.214;11.350;2024-02-21T15:20:25;15.80;15.30
1025;DHT22;501;48.214;11.350;2024-02-21T15:22:50;15.60;14.50
1025;DHT22;501;48.214;11.350;2024-02-21T15:25:16;15.40;15.40
1025;DHT22;501;48.214;11.350;2024-02-21T15:27:44;15.20;15.70
1025;DHT22;501;48.214;11.350;2024-02-21T15:30:11;15.00;16.00
1025;DHT22;501;48.214;11.350;2024-02-21T15:32:38;14.90;15.50
1025;DHT22;501;48.214;11.350;2024-02-21T15:35:05;14.70;15.30
1025;DHT22;501;48.214;11.350;2024-02-21T15:37:34;14.60;16.00
1025;DHT22;501;48.214;11.350;2024-02-21T15:40:00;14.40;16.50
1025;DHT22;501;48.214;11.350;2024-02-21T15:42:26;14.30;16.90
1025;DHT22;501;48.214;11.350;2024-02-21T15:44:52;14.20;17.00
1025;DHT22;501;48.214;11.350;2024-02-21T15:47:18;14.10;16.40
1025;DHT22;501;48.214;11.350;2024-02-21T15:49:49;13.90;16.90
1025;DHT22;501;48.214;11.350;2024-02-21T15:52:15;13.90;16.90
1025;DHT22;501;48.214;11.350;2024-02-21T15:54:41;13.70;17.20
1025;DHT22;501;48.214;11.350;2024-02-21T15:57:06;13.60;17.60
1025;DHT22;501;48.214;11.350;2024-02-21T15:59:33;13.50;18.10
1025;DHT22;501;48.214;11.350;2024-02-21T16:01:58;13.50;18.20
1025;DHT22;501;48.214;11.350;2024-02-21T16:04:28;13.40;18.00
1025;DHT22;501;48.214;11.350;2024-02-21T16:06:54;13.30;17.40
1025;DHT22;501;48.214;11.350;2024-02-21T16:09:20;13.30;18.20
1025;DHT22;501;48.214;11.350;2024-02-21T16:11:46;13.20;17.80
1025;DHT22;501;48.214;11.350;2024-02-21T16:14:13;13.10;18.40
1025;DHT22;501;48.214;11.350;2024-02-21T16:16:39;13.10;19.30